createdAt,value
2022-12-29T00:00:16.051Z,0.300
2022-12-29T00:02:14.361Z,0.200
2022-12-29T00:03:14.601Z,0.300
2022-12-29T00:04:15.619Z,0.200
2022-12-29T00:08:13.872Z,0.100
2022-12-29T00:09:15.429Z,0.200
2022-12-29T00:11:14.902Z,0.300
2022-12-29T00:12:14.821Z,0.200
2022-12-29T00:15:15.291Z,0.300
2022-12-29T00:18:14.803Z,0.200
2022-12-29T00:21:14.997Z,0.300
2022-12-29T00:22:14.624Z,0.200
2022-12-29T00:24:14.072Z,0.300
2022-12-29T00:25:14.387Z,0.200
2022-12-29T00:29:14.219Z,0.100
2022-12-29T00:30:15.131Z,0.200
2022-12-29T00:38:14.990Z,0.100
2022-12-29T00:39:15.025Z,0.200
2022-12-29T00:41:14.671Z,0.300
2022-12-29T00:42:14.608Z,0.100
2022-12-29T00:45:14.831Z,0.200
2022-12-29T00:46:19.384Z,0.100
2022-12-29T00:48:15.074Z,0.200
2022-12-29T00:49:14.919Z,0.300
2022-12-29T00:50:14.885Z,0.200
2022-12-29T00:54:14.992Z,0.100
2022-12-29T00:56:14.316Z,0.200
2022-12-29T00:58:14.472Z,0.100
2022-12-29T00:59:14.271Z,0.200
2022-12-29T01:02:15.504Z,0.100
2022-12-29T01:03:14.338Z,0.200
2022-12-29T01:04:14.375Z,0.300
2022-12-29T01:05:14.529Z,0.200
2022-12-29T01:06:14.292Z,0.300
2022-12-29T01:08:14.922Z,0.400
2022-12-29T01:10:14.159Z,0.300
2022-12-29T01:12:14.430Z,0.5
2022-12-29T01:13:14.851Z,0.300
2022-12-29T01:14:14.674Z,0.200
2022-12-29T01:15:14.642Z,0.400
2022-12-29T01:17:14.925Z,0.600
2022-12-29T01:18:14.677Z,0.400
2022-12-29T01:19:14.822Z,0.699
2022-12-29T01:20:14.804Z,0.400
2022-12-29T01:23:14.365Z,0.300
2022-12-29T01:24:14.665Z,0.600
2022-12-29T01:25:14.717Z,0.400
2022-12-29T01:27:14.298Z,0.5
2022-12-29T01:28:14.927Z,0.600
2022-12-29T01:30:14.305Z,0.699
2022-12-29T01:31:15.404Z,0.600
2022-12-29T01:32:14.277Z,0.400
2022-12-29T01:33:13.958Z,0.600
2022-12-29T01:34:14.717Z,0.5
2022-12-29T01:35:14.577Z,0.600
2022-12-29T01:36:14.810Z,0.5
2022-12-29T01:37:14.874Z,0.600
2022-12-29T01:39:14.648Z,0.400
2022-12-29T01:41:14.963Z,0.5
2022-12-29T01:42:14.823Z,0.600
2022-12-29T01:43:14.668Z,0.5
2022-12-29T01:44:14.291Z,0.699
2022-12-29T01:46:14.278Z,0.5
2022-12-29T01:47:14.063Z,0.699
2022-12-29T01:48:15.220Z,0.800
2022-12-29T01:49:14.295Z,0.600
2022-12-29T01:51:14.680Z,0.800
2022-12-29T01:52:14.349Z,0.5
2022-12-29T01:53:14.375Z,0.400
2022-12-29T01:54:14.309Z,0.699
2022-12-29T01:55:14.420Z,0.800
2022-12-29T01:57:15.085Z,0.699
2022-12-29T01:59:15.126Z,0.800
2022-12-29T02:02:14.944Z,0.899
2022-12-29T02:03:14.417Z,0.800
2022-12-29T02:04:15.074Z,0.899
2022-12-29T02:05:14.262Z,0.800
2022-12-29T02:06:14.191Z,0.699
2022-12-29T02:07:14.168Z,0.899
2022-12-29T02:08:14.231Z,0.699
2022-12-29T02:09:20.240Z,0.800
2022-12-29T02:10:14.318Z,0.699
2022-12-29T02:11:15.050Z,0.600
2022-12-29T02:12:14.862Z,0.699
2022-12-29T02:13:14.750Z,0.800
2022-12-29T02:15:15.558Z,0.600
2022-12-29T02:16:14.409Z,0.5
2022-12-29T02:17:14.389Z,0.600
2022-12-29T02:22:14.462Z,0.5
2022-12-29T02:24:14.401Z,0.600
2022-12-29T02:26:14.531Z,0.5
2022-12-29T02:29:14.835Z,0.600
2022-12-29T02:31:14.887Z,0.699
2022-12-29T02:32:14.347Z,0.5
2022-12-29T02:35:15.259Z,0.600
2022-12-29T02:36:14.567Z,0.5
2022-12-29T02:38:15.043Z,0.400
2022-12-29T02:39:14.298Z,0.5
2022-12-29T02:40:14.515Z,0.400
2022-12-29T02:41:14.597Z,0.600
2022-12-29T02:42:14.675Z,0.5
2022-12-29T02:43:14.623Z,0.400
2022-12-29T02:46:14.672Z,0.600
2022-12-29T02:47:14.917Z,0.699
2022-12-29T02:48:15.019Z,0.300
2022-12-29T02:49:15.096Z,0.400
2022-12-29T02:52:15.059Z,0.5
2022-12-29T02:53:15.072Z,0.300
2022-12-29T02:54:15.084Z,0.5
2022-12-29T02:55:15.464Z,0.400
2022-12-29T03:00:15.917Z,0.5
2022-12-29T03:01:15.223Z,0.300
2022-12-29T03:02:14.301Z,0.400
2022-12-29T03:05:15.232Z,0.600
2022-12-29T03:08:14.866Z,0.800
2022-12-29T03:09:18.443Z,0.600
2022-12-29T03:10:14.813Z,0.699
2022-12-29T03:11:15.259Z,0.899
2022-12-29T03:12:14.296Z,0.600
2022-12-29T03:13:14.696Z,0.699
2022-12-29T03:14:14.720Z,0.800
2022-12-29T03:15:15.388Z,0.600
2022-12-29T03:16:14.699Z,0.699
2022-12-29T03:20:14.909Z,0.600
2022-12-29T03:21:15.195Z,0.699
2022-12-29T03:22:15.264Z,0.5
2022-12-29T03:23:14.371Z,0.600
2022-12-29T03:26:14.795Z,0.899
2022-12-29T03:27:14.818Z,0.5
2022-12-29T03:30:15.512Z,0.400
2022-12-29T03:32:14.983Z,0.5
2022-12-29T03:35:15.235Z,0.300
2022-12-29T03:36:14.464Z,0.600
2022-12-29T03:37:14.322Z,0.5
2022-12-29T03:38:14.337Z,0.600
2022-12-29T03:39:14.837Z,0.300
2022-12-29T03:40:14.858Z,0.400
2022-12-29T03:42:14.265Z,0.5
2022-12-29T03:45:15.232Z,0.400
2022-12-29T03:46:15.477Z,0.5
2022-12-29T03:48:14.437Z,0.600
2022-12-29T03:49:14.829Z,0.5
2022-12-29T03:50:14.982Z,0.600
2022-12-29T03:52:14.784Z,0.5
2022-12-29T03:53:15.171Z,0.600
2022-12-29T03:54:14.551Z,0.5
2022-12-29T03:55:14.967Z,0.600
2022-12-29T03:56:14.606Z,0.5
2022-12-29T03:59:15.124Z,0.400
2022-12-29T04:00:15.054Z,0.699
2022-12-29T04:01:14.498Z,0.600
2022-12-29T04:02:15.796Z,0.5
2022-12-29T04:03:14.943Z,0.600
2022-12-29T04:04:14.294Z,0.5
2022-12-29T04:06:15.075Z,0.600
2022-12-29T04:07:15.249Z,0.400
2022-12-29T04:08:14.789Z,0.600
2022-12-29T04:10:14.520Z,0.5
2022-12-29T04:11:14.654Z,0.400
2022-12-29T04:12:15.500Z,0.5
2022-12-29T04:14:14.555Z,0.600
2022-12-29T04:15:15.365Z,0.5
2022-12-29T04:19:15.077Z,0.400
2022-12-29T04:21:15.395Z,0.600
2022-12-29T04:22:14.711Z,0.5
2022-12-29T04:25:15.503Z,0.600
2022-12-29T04:28:14.266Z,0.699
2022-12-29T04:29:14.927Z,0.5
2022-12-29T04:31:14.354Z,0.600
2022-12-29T04:32:14.386Z,0.699
2022-12-29T04:33:14.393Z,0.5
2022-12-29T04:34:15.071Z,0.600
2022-12-29T04:39:15.536Z,0.5
2022-12-29T04:40:15.032Z,0.600
2022-12-29T04:41:15.354Z,0.5
2022-12-29T04:42:14.520Z,0.600
2022-12-29T04:43:15.250Z,0.5
2022-12-29T04:44:15.500Z,0.600
2022-12-29T04:45:15.299Z,0.5
2022-12-29T04:46:14.836Z,0.600
2022-12-29T04:48:14.367Z,0.400
2022-12-29T04:50:15.543Z,0.5
2022-12-29T04:51:15.061Z,0.400
2022-12-29T04:52:13.733Z,0.5
2022-12-29T04:53:14.439Z,0.400
2022-12-29T04:54:14.972Z,0.200
2022-12-29T04:55:14.734Z,0.400
2022-12-29T04:56:14.766Z,0.300
2022-12-29T04:57:15.206Z,0.200
2022-12-29T04:59:14.858Z,0.5
2022-12-29T05:00:30.592Z,0.400
2022-12-29T05:03:15.065Z,0.300
2022-12-29T05:04:14.439Z,0.5
2022-12-29T05:05:15.056Z,0.300
2022-12-29T05:06:14.346Z,0.400
2022-12-29T05:07:15.070Z,0.300
2022-12-29T05:08:15.320Z,0.200
2022-12-29T05:09:15.418Z,0.400
2022-12-29T05:10:14.986Z,0.300
2022-12-29T05:11:15.321Z,0.200
2022-12-29T05:12:14.521Z,0.300
2022-12-29T05:14:15.170Z,0.200
2022-12-29T05:15:14.849Z,0.300
2022-12-29T05:16:14.820Z,0.400
2022-12-29T05:17:15.093Z,0.300
2022-12-29T05:18:15.402Z,0.200
2022-12-29T05:21:15.253Z,0.5
2022-12-29T05:22:15.310Z,0.300
2022-12-29T05:24:14.515Z,0.400
2022-12-29T05:25:14.963Z,0.300
2022-12-29T05:26:15.109Z,0.400
2022-12-29T05:27:15.609Z,0.300
2022-12-29T05:34:14.368Z,0.400
2022-12-29T05:36:15.198Z,0.300
2022-12-29T05:37:14.380Z,0.400
2022-12-29T05:38:14.313Z,0.300
2022-12-29T05:39:14.914Z,0.200
2022-12-29T05:40:14.572Z,0.5
2022-12-29T05:41:15.572Z,0.400
2022-12-29T05:42:14.812Z,0.300
2022-12-29T05:44:14.792Z,0.600
2022-12-29T05:47:15.089Z,0.5
2022-12-29T05:49:15.024Z,0.600
2022-12-29T05:50:15.694Z,0.400
2022-12-29T05:51:15.394Z,0.5
2022-12-29T05:52:15.027Z,0.600
2022-12-29T05:53:15.081Z,0.400
2022-12-29T05:54:14.380Z,0.300
2022-12-29T05:55:15.292Z,0.600
2022-12-29T05:56:14.804Z,0.400
2022-12-29T05:57:14.869Z,0.5
2022-12-29T05:58:15.152Z,0.300
2022-12-29T05:59:13.995Z,0.5
2022-12-29T06:02:15.261Z,0.400
2022-12-29T06:03:15.451Z,0.600
2022-12-29T06:04:15.025Z,0.400
2022-12-29T06:06:14.415Z,0.5
2022-12-29T06:07:14.925Z,0.600
2022-12-29T06:08:15.421Z,0.400
2022-12-29T06:09:15.193Z,0.600
2022-12-29T06:10:14.899Z,0.400
2022-12-29T06:14:14.836Z,0.300
2022-12-29T06:15:15.120Z,0.600
2022-12-29T06:16:14.808Z,0.5
2022-12-29T06:18:19.625Z,0.400
2022-12-29T06:19:15.103Z,0.5
2022-12-29T06:20:15.914Z,0.400
2022-12-29T06:23:14.627Z,0.300
2022-12-29T06:24:15.001Z,0.5
2022-12-29T06:25:16.007Z,0.300
2022-12-29T06:27:14.577Z,0.400
2022-12-29T06:35:14.895Z,0.300
2022-12-29T06:36:15.214Z,0.400
2022-12-29T06:37:14.759Z,0.300
2022-12-29T06:38:14.558Z,0.600
2022-12-29T06:39:14.483Z,0.300
2022-12-29T06:40:15.072Z,0.400
2022-12-29T06:41:15.331Z,0.300
2022-12-29T06:43:14.322Z,0.400
2022-12-29T06:44:14.523Z,0.300
2022-12-29T06:45:15.074Z,0.5
2022-12-29T06:46:14.977Z,0.300
2022-12-29T06:47:15.342Z,0.400
2022-12-29T06:48:14.778Z,0.300
2022-12-29T06:49:14.983Z,0.400
2022-12-29T06:50:14.915Z,0.300
2022-12-29T06:51:14.390Z,0.400
2022-12-29T06:52:14.375Z,0.300
2022-12-29T06:57:15.202Z,0.400
2022-12-29T06:58:14.818Z,0.300
2022-12-29T06:59:15.179Z,0.699
2022-12-29T07:00:22.343Z,0.400
2022-12-29T07:01:14.379Z,0.5
2022-12-29T07:02:14.387Z,0.200
2022-12-29T07:03:22.853Z,0.400
2022-12-29T07:05:14.693Z,0.699
2022-12-29T07:06:15.172Z,0.5
2022-12-29T07:07:14.399Z,0.600
2022-12-29T07:08:14.866Z,0.5
2022-12-29T07:09:15.364Z,0.600
2022-12-29T07:10:14.622Z,0.400
2022-12-29T07:11:15.447Z,0.5
2022-12-29T07:13:28.825Z,0.600
2022-12-29T07:14:15.114Z,0.5
2022-12-29T07:15:14.482Z,0.600
2022-12-29T07:16:15.440Z,0.400
2022-12-29T07:17:14.719Z,0.5
2022-12-29T07:18:14.720Z,0.400
2022-12-29T07:20:15.323Z,0.5
2022-12-29T07:21:14.245Z,0.400
2022-12-29T07:22:14.343Z,0.800
2022-12-29T07:23:14.702Z,0.400
2022-12-29T07:24:14.659Z,0.5
2022-12-29T07:25:15.003Z,0.400
2022-12-29T07:26:14.892Z,0.5
2022-12-29T07:27:15.188Z,0.300
2022-12-29T07:28:14.971Z,0.400
2022-12-29T07:29:15.047Z,0.600
2022-12-29T07:30:15.716Z,0.800
2022-12-29T07:31:15.187Z,0.5
2022-12-29T07:32:14.118Z,0.600
2022-12-29T07:33:14.376Z,0.800
2022-12-29T07:34:14.324Z,0.699
2022-12-29T07:35:14.692Z,0.600
2022-12-29T07:37:14.302Z,0.800
2022-12-29T07:38:14.411Z,0.699
2022-12-29T07:39:14.709Z,0.600
2022-12-29T07:40:15.081Z,0.699
2022-12-29T07:41:14.416Z,0.800
2022-12-29T07:43:15.419Z,0.899
2022-12-29T07:44:15.191Z,0.800
2022-12-29T07:45:14.488Z,0.899
2022-12-29T07:46:54.579Z,0.800
2022-12-29T07:47:39.447Z,1
2022-12-29T07:49:14.943Z,0.899
2022-12-29T07:51:14.260Z,1
2022-12-29T07:52:14.061Z,1.200
2022-12-29T07:53:14.496Z,1.100
2022-12-29T07:54:13.982Z,0.800
2022-12-29T07:55:14.475Z,0.899
2022-12-29T07:57:14.271Z,1
2022-12-29T07:58:15.187Z,1.299
2022-12-29T07:59:15.609Z,1.100
2022-12-29T08:00:15.644Z,0.800
2022-12-29T08:01:15.213Z,0.899
2022-12-29T08:02:14.603Z,1
2022-12-29T08:03:15.338Z,0.899
2022-12-29T08:05:14.605Z,1.100
2022-12-29T08:06:14.117Z,1
2022-12-29T08:08:15.127Z,0.899
2022-12-29T08:09:21.572Z,1.100
2022-12-29T08:11:14.396Z,1
2022-12-29T08:12:14.910Z,0.800
2022-12-29T08:13:15.135Z,1.100
2022-12-29T08:15:15.271Z,0.899
2022-12-29T08:16:14.547Z,1.100
2022-12-29T08:17:15.063Z,1
2022-12-29T08:18:14.124Z,1.200
2022-12-29T08:19:14.768Z,1
2022-12-29T08:21:14.352Z,0.899
2022-12-29T08:24:14.962Z,1
2022-12-29T08:26:14.395Z,0.899
2022-12-29T08:27:20.320Z,1
2022-12-29T08:29:14.428Z,1.100
2022-12-29T08:30:14.291Z,1
2022-12-29T08:31:14.360Z,1.100
2022-12-29T08:33:14.535Z,1.200
2022-12-29T08:34:15.367Z,0.899
2022-12-29T08:35:15.443Z,1.299
2022-12-29T08:37:14.966Z,1
2022-12-29T08:40:14.480Z,1.100
2022-12-29T08:41:14.353Z,1
2022-12-29T08:43:18.497Z,1.200
2022-12-29T08:44:14.754Z,1
2022-12-29T08:45:15.177Z,1.100
2022-12-29T08:46:14.629Z,1.200
2022-12-29T08:47:15.059Z,1.100
2022-12-29T08:48:15.269Z,1.299
2022-12-29T08:49:14.498Z,1
2022-12-29T08:50:15.570Z,1.200
2022-12-29T08:51:14.919Z,1.100
2022-12-29T08:53:15.233Z,1
2022-12-29T08:54:14.797Z,1.100
2022-12-29T08:56:14.943Z,1.299
2022-12-29T08:57:14.427Z,1.200
2022-12-29T08:58:15.299Z,1
2022-12-29T08:59:14.663Z,1.100
2022-12-29T09:01:15.120Z,1.200
2022-12-29T09:03:14.961Z,1
2022-12-29T09:04:16.638Z,1.399
2022-12-29T09:05:14.744Z,1.299
2022-12-29T09:08:14.428Z,1.799
2022-12-29T09:09:14.655Z,1.5
2022-12-29T09:10:15.031Z,1.200
2022-12-29T09:11:14.671Z,1.5
2022-12-29T09:12:15.199Z,1.299
2022-12-29T09:13:14.472Z,1.5
2022-12-29T09:14:14.717Z,1.200
2022-12-29T09:15:15.642Z,1.299
2022-12-29T09:16:14.640Z,1.100
2022-12-29T09:17:15.195Z,1.299
2022-12-29T09:18:21.380Z,1.100
2022-12-29T09:19:15.351Z,1.200
2022-12-29T09:20:14.941Z,1.100
2022-12-29T09:21:14.146Z,1.299
2022-12-29T09:22:19.268Z,1.5
2022-12-29T09:23:14.175Z,1.200
2022-12-29T09:26:15.285Z,1.399
2022-12-29T09:27:14.465Z,1.600
2022-12-29T09:28:14.405Z,1.399
2022-12-29T09:29:14.727Z,1.5
2022-12-29T09:30:14.583Z,1.399
2022-12-29T09:31:14.879Z,1.5
2022-12-29T09:32:18.553Z,1.200
2022-12-29T09:33:15.265Z,1.799
2022-12-29T09:35:14.578Z,1.600
2022-12-29T09:37:14.390Z,1.299
2022-12-29T09:38:14.435Z,1.799
2022-12-29T09:39:15.058Z,1.399
2022-12-29T09:41:15.174Z,1.600
2022-12-29T09:42:14.781Z,1.399
2022-12-29T09:43:15.200Z,1.299
2022-12-29T09:44:14.506Z,1.5
2022-12-29T09:45:15.084Z,1.399
2022-12-29T09:46:15.119Z,1.5
2022-12-29T09:47:14.567Z,1.700
2022-12-29T09:48:14.489Z,1.399
2022-12-29T09:49:14.898Z,1.700
2022-12-29T09:52:14.749Z,1.600
2022-12-29T09:53:14.630Z,1.700
2022-12-29T09:54:14.484Z,1.600
2022-12-29T09:55:15.228Z,1.5
2022-12-29T09:56:14.667Z,1.399
2022-12-29T09:59:14.163Z,1.5
2022-12-29T10:00:16.126Z,1.600
2022-12-29T10:01:14.919Z,1.700
2022-12-29T10:02:14.584Z,1.600
2022-12-29T10:03:15.105Z,1.399
2022-12-29T10:04:14.398Z,1.600
2022-12-29T10:06:14.330Z,1.399
2022-12-29T10:08:17.410Z,1.600
2022-12-29T10:11:14.544Z,1.200
2022-12-29T10:12:14.321Z,1.399
2022-12-29T10:13:14.738Z,1.200
2022-12-29T10:14:16.278Z,1.5
2022-12-29T10:15:14.958Z,1.399
2022-12-29T10:17:14.677Z,1.299
2022-12-29T10:18:15.252Z,1.700
2022-12-29T10:19:15.480Z,1.399
2022-12-29T10:20:15.459Z,1.299
2022-12-29T10:22:15.279Z,1.5
2022-12-29T10:23:14.541Z,1.299
2022-12-29T10:24:15.060Z,1.5
2022-12-29T10:25:14.801Z,1.600
2022-12-29T10:26:14.856Z,1.5
2022-12-29T10:27:14.432Z,1.299
2022-12-29T10:28:14.489Z,1.5
2022-12-29T10:29:14.668Z,1.299
2022-12-29T10:30:15.664Z,1.600
2022-12-29T10:31:15.631Z,1.5
2022-12-29T10:33:14.687Z,1.399
2022-12-29T10:37:14.748Z,1.5
2022-12-29T10:38:15.280Z,1.399
2022-12-29T10:39:14.889Z,1.5
2022-12-29T10:48:15.141Z,1.399
2022-12-29T10:50:14.773Z,1.299
2022-12-29T10:51:14.833Z,1.600
2022-12-29T10:52:14.857Z,1.5
2022-12-29T10:53:15.002Z,1.399
2022-12-29T10:54:15.021Z,1.299
2022-12-29T10:55:15.265Z,1.600
2022-12-29T10:56:14.261Z,1.399
2022-12-29T10:57:14.556Z,1.299
2022-12-29T10:58:14.659Z,1.600
2022-12-29T11:00:16.375Z,1.700
2022-12-29T11:02:15.141Z,1.600
2022-12-29T11:03:14.240Z,1.799
2022-12-29T11:05:14.832Z,1.700
2022-12-29T11:07:16.246Z,1.899
2022-12-29T11:08:15.451Z,1.799
2022-12-29T11:09:14.809Z,1.700
2022-12-29T11:11:14.248Z,1.899
2022-12-29T11:12:14.265Z,1.799
2022-12-29T11:13:14.410Z,1.700
2022-12-29T11:14:14.175Z,1.799
2022-12-29T11:15:14.856Z,1.899
2022-12-29T11:16:15.326Z,1.799
2022-12-29T11:17:14.992Z,1.700
2022-12-29T11:19:14.367Z,1.299
2022-12-29T11:20:14.635Z,1.600
2022-12-29T11:21:15.004Z,1.700
2022-12-29T11:22:14.984Z,1.600
2022-12-29T11:23:15.000Z,1.399
2022-12-29T11:24:14.362Z,1.299
2022-12-29T11:25:14.581Z,1.600
2022-12-29T11:26:14.638Z,1.299
2022-12-29T11:27:15.243Z,1.600
2022-12-29T11:30:15.482Z,1.700
2022-12-29T11:31:14.957Z,1.799
2022-12-29T11:33:14.880Z,1.5
2022-12-29T11:35:14.347Z,1.899
2022-12-29T11:36:14.912Z,1.399
2022-12-29T11:37:15.246Z,1.700
2022-12-29T11:39:14.447Z,1.5
2022-12-29T11:40:14.824Z,1.600
2022-12-29T11:41:19.821Z,1.700
2022-12-29T11:42:15.314Z,1.600
2022-12-29T11:43:19.783Z,1.700
2022-12-29T11:44:14.939Z,1.600
2022-12-29T11:45:14.298Z,1.700
2022-12-29T11:47:20.408Z,1.799
2022-12-29T11:48:14.626Z,1.600
2022-12-29T11:49:14.701Z,1.700
2022-12-29T11:50:14.882Z,1.600
2022-12-29T11:51:16.623Z,1.700
2022-12-29T11:55:15.255Z,1.899
2022-12-29T11:56:14.338Z,1.799
2022-12-29T11:57:14.514Z,1.700
2022-12-29T11:59:14.668Z,1.600
2022-12-29T12:00:15.849Z,1.799
2022-12-29T12:01:15.449Z,1.5
2022-12-29T12:02:15.309Z,1.899
2022-12-29T12:03:15.230Z,1.799
2022-12-29T12:04:14.739Z,1.700
2022-12-29T12:05:14.331Z,1.600
2022-12-29T12:06:14.545Z,1.700
2022-12-29T12:07:15.426Z,1.5
2022-12-29T12:08:20.473Z,1.899
2022-12-29T12:09:14.621Z,1.799
2022-12-29T12:11:15.430Z,1.5
2022-12-29T12:13:14.420Z,1.899
2022-12-29T12:14:14.786Z,1.700
2022-12-29T12:15:15.197Z,2.299
2022-12-29T12:16:14.414Z,1.899
2022-12-29T12:17:14.882Z,1.799
2022-12-29T12:19:14.066Z,1.600
2022-12-29T12:20:14.321Z,1.700
2022-12-29T12:22:14.896Z,1.5
2022-12-29T12:23:14.377Z,1.700
2022-12-29T12:24:14.879Z,1.799
2022-12-29T12:25:15.489Z,1.700
2022-12-29T12:26:15.308Z,1.399
2022-12-29T12:27:14.553Z,1.5
2022-12-29T12:28:14.702Z,1.399
2022-12-29T12:29:14.966Z,1.799
2022-12-29T12:30:15.250Z,2
2022-12-29T12:31:14.321Z,1.799
2022-12-29T12:32:14.796Z,2
2022-12-29T12:33:14.378Z,1.600
2022-12-29T12:34:14.852Z,1.5
2022-12-29T12:35:21.307Z,1.600
2022-12-29T12:36:14.359Z,1.700
2022-12-29T12:37:14.316Z,1.600
2022-12-29T12:38:14.235Z,1.700
2022-12-29T12:39:14.357Z,1.5
2022-12-29T12:41:19.862Z,1.600
2022-12-29T12:42:14.221Z,1.5
2022-12-29T12:43:14.442Z,1.399
2022-12-29T12:44:14.522Z,1.799
2022-12-29T12:46:14.122Z,1.600
2022-12-29T12:47:15.049Z,1.399
2022-12-29T12:48:15.012Z,1.600
2022-12-29T12:49:15.005Z,1.5
2022-12-29T12:50:15.355Z,1.600
2022-12-29T12:52:14.673Z,1.799
2022-12-29T12:53:16.088Z,1.600
2022-12-29T12:54:15.524Z,1.700
2022-12-29T12:55:16.582Z,1.600
2022-12-29T12:56:15.633Z,1.5
2022-12-29T12:57:15.464Z,1.399
2022-12-29T12:59:15.576Z,1.600
2022-12-29T13:06:15.085Z,1.299
2022-12-29T13:07:15.315Z,1.899
2022-12-29T13:09:16.874Z,1.700
2022-12-29T13:12:15.752Z,1.600
2022-12-29T13:13:16.201Z,1.700
2022-12-29T13:16:15.757Z,1.799
2022-12-29T13:17:16.080Z,1.899
2022-12-29T13:18:15.601Z,1.799
2022-12-29T13:19:15.651Z,1.5
2022-12-29T13:20:15.061Z,1.600
2022-12-29T13:21:16.391Z,1.399
2022-12-29T13:22:16.083Z,1.600
2022-12-29T13:23:15.506Z,1.5
2022-12-29T13:24:14.921Z,1.399
2022-12-29T13:25:16.560Z,1.600
2022-12-29T13:26:15.744Z,2.5
2022-12-29T13:27:15.933Z,2.200
2022-12-29T13:28:15.602Z,1.799
2022-12-29T13:29:16.290Z,1.899
2022-12-29T13:30:16.948Z,2.099
2022-12-29T13:31:16.047Z,1.899
2022-12-29T13:32:16.577Z,1.700
2022-12-29T13:33:21.097Z,1.799
2022-12-29T13:34:16.262Z,1.700
2022-12-29T13:35:15.763Z,1.600
2022-12-29T13:37:15.968Z,1.5
2022-12-29T13:38:14.820Z,1.399
2022-12-29T13:39:20.858Z,1.600
2022-12-29T13:41:15.965Z,1.799
2022-12-29T13:42:15.504Z,1.700
2022-12-29T13:43:16.088Z,1.600
2022-12-29T13:44:16.091Z,1.799
2022-12-29T13:45:16.353Z,1.5
2022-12-29T13:46:15.944Z,1.899
2022-12-29T13:47:15.686Z,1.5
2022-12-29T13:48:14.641Z,1.600
2022-12-29T13:49:15.181Z,1.5
2022-12-29T13:50:15.283Z,1.600
2022-12-29T13:53:14.617Z,1.5
2022-12-29T13:54:15.405Z,1.600
2022-12-29T13:57:14.931Z,1.899
2022-12-29T13:58:15.524Z,1.399
2022-12-29T13:59:15.744Z,2
2022-12-29T14:00:15.848Z,1.299
2022-12-29T14:01:15.493Z,1.700
2022-12-29T14:03:15.762Z,1.899
2022-12-29T14:05:14.580Z,1.5
2022-12-29T14:06:15.407Z,1.399
2022-12-29T14:07:15.016Z,1.700
2022-12-29T14:08:13.315Z,1.600
2022-12-29T14:09:15.251Z,1.700
2022-12-29T14:10:15.160Z,2.099
2022-12-29T14:11:14.489Z,1.799
2022-12-29T14:12:19.848Z,1.700
2022-12-29T14:13:15.218Z,1.899
2022-12-29T14:15:15.012Z,1.600
2022-12-29T14:17:15.584Z,1.899
2022-12-29T14:18:14.826Z,1.799
2022-12-29T14:19:14.738Z,2
2022-12-29T14:20:23.559Z,1.700
2022-12-29T14:21:15.006Z,1.799
2022-12-29T14:24:14.351Z,1.5
2022-12-29T14:25:15.110Z,1.700
2022-12-29T14:26:14.361Z,1.600
2022-12-29T14:27:15.106Z,1.899
2022-12-29T14:28:14.569Z,2
2022-12-29T14:29:14.820Z,1.899
2022-12-29T14:30:29.304Z,1.799
2022-12-29T14:34:15.137Z,2
2022-12-29T14:35:14.587Z,1.799
2022-12-29T14:38:15.256Z,1.899
2022-12-29T14:39:15.100Z,1.600
2022-12-29T14:40:15.562Z,2
2022-12-29T14:41:20.512Z,1.799
2022-12-29T14:43:14.438Z,2
2022-12-29T14:44:33.855Z,1.799
2022-12-29T14:45:14.998Z,1.600
2022-12-29T14:46:14.441Z,2
2022-12-29T14:47:14.633Z,1.899
2022-12-29T14:49:14.267Z,2
2022-12-29T14:50:14.703Z,1.899
2022-12-29T14:51:14.942Z,2
2022-12-29T14:52:14.297Z,1.799
2022-12-29T14:54:14.792Z,1.899
2022-12-29T14:55:14.999Z,2.200
2022-12-29T14:57:14.547Z,2.099
2022-12-29T14:58:14.664Z,2.299
2022-12-29T14:59:15.211Z,2.200
2022-12-29T15:00:15.459Z,2.400
2022-12-29T15:01:15.168Z,2.200
2022-12-29T15:02:15.024Z,1.899
2022-12-29T15:03:14.735Z,2
2022-12-29T15:05:14.998Z,1.799
2022-12-29T15:08:14.955Z,1.5
2022-12-29T15:09:14.646Z,1.799
2022-12-29T15:10:15.164Z,1.700
2022-12-29T15:11:14.444Z,1.5
2022-12-29T15:12:16.562Z,1.700
2022-12-29T15:13:15.339Z,1.899
2022-12-29T15:14:14.416Z,1.5
2022-12-29T15:15:15.053Z,1.700
2022-12-29T15:16:14.271Z,1.600
2022-12-29T15:22:14.787Z,1.5
2022-12-29T15:23:15.513Z,1.399
2022-12-29T15:24:15.964Z,1.5
2022-12-29T15:26:16.138Z,1.299
2022-12-29T15:27:15.380Z,1.5
2022-12-29T15:28:14.920Z,1.399
2022-12-29T15:30:18.174Z,1.5
2022-12-29T15:32:16.340Z,1.600
2022-12-29T15:33:15.510Z,1.799
2022-12-29T15:34:15.783Z,1.5
2022-12-29T15:37:16.534Z,1.700
2022-12-29T15:38:15.522Z,1.299
2022-12-29T15:40:17.015Z,1.700
2022-12-29T15:41:16.429Z,2.200
2022-12-29T15:42:15.952Z,2.099
2022-12-29T15:43:15.902Z,1.799
2022-12-29T15:44:15.736Z,1.899
2022-12-29T15:45:16.065Z,2
2022-12-29T15:48:16.310Z,1.600
2022-12-29T15:49:15.954Z,1.700
2022-12-29T15:50:16.021Z,1.799
2022-12-29T15:51:16.301Z,2.200
2022-12-29T15:53:16.567Z,2.099
2022-12-29T15:54:15.558Z,2.200
2022-12-29T15:55:16.286Z,2.299
2022-12-29T15:58:16.729Z,2.099
2022-12-29T15:59:16.850Z,2.299
2022-12-29T16:00:16.748Z,2.5
2022-12-29T16:01:16.754Z,2.099
2022-12-29T16:02:16.040Z,2.299
2022-12-29T16:03:16.554Z,1.899
2022-12-29T16:04:15.715Z,2
2022-12-29T16:06:15.876Z,2.200
2022-12-29T16:07:16.347Z,2.099
2022-12-29T16:08:16.392Z,2.299
2022-12-29T16:10:16.236Z,2.200
2022-12-29T16:11:15.962Z,1.899
2022-12-29T16:15:16.281Z,2.200
2022-12-29T16:16:15.861Z,2.299
2022-12-29T16:17:16.578Z,2
2022-12-29T16:20:15.629Z,2.400
2022-12-29T16:21:15.243Z,2.200
2022-12-29T16:22:16.249Z,1.899
2022-12-29T16:23:16.400Z,2.099
2022-12-29T16:24:15.567Z,1.899
2022-12-29T16:25:15.778Z,2
2022-12-29T16:27:15.179Z,2.200
2022-12-29T16:28:14.976Z,2
2022-12-29T16:30:15.857Z,2.099
2022-12-29T16:31:15.246Z,2.299
2022-12-29T16:32:15.785Z,1.700
2022-12-29T16:33:20.659Z,2.200
2022-12-29T16:34:15.893Z,1.899
2022-12-29T16:35:20.280Z,2.299
2022-12-29T16:36:16.840Z,2.099
2022-12-29T16:37:14.802Z,2
2022-12-29T16:38:15.554Z,1.700
2022-12-29T16:39:15.756Z,2
2022-12-29T16:40:15.823Z,1.700
2022-12-29T16:41:15.290Z,1.899
2022-12-29T16:42:15.365Z,1.700
2022-12-29T16:43:14.661Z,1.899
2022-12-29T16:44:14.831Z,1.799
2022-12-29T16:46:14.369Z,2
2022-12-29T16:47:14.682Z,1.899
2022-12-29T16:49:22.150Z,2
2022-12-29T16:50:15.156Z,1.799
2022-12-29T16:51:29.113Z,2
2022-12-29T16:52:14.463Z,1.899
2022-12-29T16:53:28.849Z,2
2022-12-29T16:55:14.917Z,2.099
2022-12-29T16:56:15.148Z,2.400
2022-12-29T16:57:14.551Z,2.099
2022-12-29T16:58:14.611Z,2.200
2022-12-29T16:59:14.854Z,2
2022-12-29T17:00:16.266Z,2.200
2022-12-29T17:01:14.981Z,2.400
2022-12-29T17:02:15.423Z,2.700
2022-12-29T17:03:15.328Z,2.799
2022-12-29T17:04:14.782Z,2.700
2022-12-29T17:05:15.803Z,2.599
2022-12-29T17:06:15.357Z,2.5
2022-12-29T17:08:14.391Z,2.299
2022-12-29T17:10:14.636Z,2.799
2022-12-29T17:11:14.996Z,2.400
2022-12-29T17:12:15.200Z,2.599
2022-12-29T17:13:15.278Z,2.700
2022-12-29T17:14:14.291Z,2.599
2022-12-29T17:15:15.433Z,2.799
2022-12-29T17:16:14.749Z,2.700
2022-12-29T17:17:14.937Z,2.599
2022-12-29T17:18:15.243Z,2.200
2022-12-29T17:19:14.689Z,2.5
2022-12-29T17:20:15.427Z,2.799
2022-12-29T17:21:14.531Z,3
2022-12-29T17:22:14.284Z,2.700
2022-12-29T17:23:14.424Z,2.599
2022-12-29T17:24:14.976Z,2.799
2022-12-29T17:25:15.523Z,2.599
2022-12-29T17:26:14.328Z,2.799
2022-12-29T17:27:14.501Z,3
2022-12-29T17:28:14.863Z,2.5
2022-12-29T17:29:14.852Z,2.799
2022-12-29T17:30:15.098Z,2.599
2022-12-29T17:31:14.703Z,2.900
2022-12-29T17:32:15.021Z,2.799
2022-12-29T17:33:14.563Z,3.099
2022-12-29T17:34:14.507Z,3.700
2022-12-29T17:35:14.983Z,3.299
2022-12-29T17:36:14.542Z,3.099
2022-12-29T17:37:15.028Z,3.299
2022-12-29T17:38:15.166Z,2.599
2022-12-29T17:39:14.740Z,2.799
2022-12-29T17:40:14.938Z,2.599
2022-12-29T17:41:14.450Z,2.700
2022-12-29T17:42:14.981Z,2.5
2022-12-29T17:43:14.839Z,2.700
2022-12-29T17:44:15.417Z,2.599
2022-12-29T17:45:15.371Z,3
2022-12-29T17:46:14.297Z,2.900
2022-12-29T17:47:14.843Z,2.700
2022-12-29T17:49:14.590Z,3.099
2022-12-29T17:50:14.865Z,3
2022-12-29T17:51:14.873Z,2.599
2022-12-29T17:52:14.871Z,2.5
2022-12-29T17:53:15.533Z,2.700
2022-12-29T17:54:15.760Z,2.799
2022-12-29T17:55:15.119Z,2.700
2022-12-29T17:56:14.356Z,2.799
2022-12-29T17:57:15.289Z,2.700
2022-12-29T17:58:14.859Z,2.900
2022-12-29T17:59:15.165Z,2.799
2022-12-29T18:00:15.169Z,3.099
2022-12-29T18:02:14.999Z,3.200